Time;durP1;ratioP1;P1;durP2;ratioP2;P2;SDS_P1;SDS_P2;PMS_P1;PMS_P2;Temp;Humidity;BMP_temperature;BMP_pressure;BME280_temperature;BME280_humidity;BME280_pressure;Samples;Min_cycle;Max_cycle;Signal;HPM_P1;HPM_P2
2022/12/20 00:01:31;;;;;;;24.35;10.15;;;1.70;99.90;;;;;;4993268;28;20046;-82
2022/12/20 00:04:04;;;;;;;23.75;11.68;;;1.70;99.90;;;;;;4992991;28;20058;-83
2022/12/20 00:06:35;;;;;;;20.02;10.50;;;1.60;99.90;;;;;;5007711;28;20046;-82
2022/12/20 00:09:06;;;;;;;22.02;10.18;;;1.60;99.90;;;;;;4993453;28;20139;-82
2022/12/20 00:11:34;;;;;;;17.40;8.65;;;1.70;99.90;;;;;;4989754;28;20064;-81
2022/12/20 00:14:01;;;;;;;17.23;7.70;;;1.70;99.90;;;;;;4991869;28;20446;-81
2022/12/20 00:16:30;;;;;;;14.45;8.00;;;1.70;99.90;;;;;;4991980;28;20144;-82
2022/12/20 00:19:00;;;;;;;15.23;7.63;;;1.70;99.90;;;;;;4992002;28;20050;-82
2022/12/20 00:21:29;;;;;;;14.80;8.45;;;1.60;99.90;;;;;;4974380;28;20050;-82
2022/12/20 00:23:59;;;;;;;17.65;9.02;;;1.60;99.90;;;;;;4991259;28;20069;-82
2022/12/20 00:26:29;;;;;;;16.52;8.25;;;1.60;99.90;;;;;;4990917;28;20567;-82
2022/12/20 00:28:57;;;;;;;18.02;9.25;;;1.60;99.90;;;;;;5007747;28;20050;-81
2022/12/20 00:31:27;;;;;;;15.80;9.35;;;1.60;99.90;;;;;;5006724;28;20108;-81
2022/12/20 00:33:56;;;;;;;19.13;8.57;;;1.50;99.90;;;;;;4974031;28;20046;-81
2022/12/20 00:36:27;;;;;;;15.90;8.45;;;1.50;99.90;;;;;;4989961;28;20062;-80
2022/12/20 00:38:59;;;;;;;17.95;9.90;;;1.50;99.90;;;;;;4973744;28;20426;-80
2022/12/20 00:41:28;;;;;;;17.75;9.73;;;1.40;99.90;;;;;;4992537;28;20141;-80
2022/12/20 00:43:56;;;;;;;14.90;8.30;;;1.30;99.90;;;;;;4992204;28;20209;-80
2022/12/20 00:46:25;;;;;;;16.67;8.45;;;1.30;99.90;;;;;;4990378;28;20061;-80
2022/12/20 00:48:54;;;;;;;16.92;9.00;;;1.30;99.90;;;;;;4989679;28;20061;-80
2022/12/20 00:51:24;;;;;;;16.13;8.73;;;1.20;99.90;;;;;;4991282;28;20093;-80
2022/12/20 00:53:52;;;;;;;15.05;8.20;;;1.20;99.90;;;;;;4992307;28;20050;-79
2022/12/20 00:56:22;;;;;;;14.82;8.43;;;1.10;99.90;;;;;;4990912;28;20053;-79
2022/12/20 00:58:50;;;;;;;16.45;8.10;;;1.10;99.90;;;;;;4988723;28;20050;-80
2022/12/20 01:01:22;;;;;;;16.65;7.90;;;1.10;99.90;;;;;;4990138;28;20054;-80
2022/12/20 01:03:51;;;;;;;14.10;7.90;;;1.10;99.90;;;;;;4991886;28;20061;-80
2022/12/20 01:06:20;;;;;;;17.85;8.52;;;1.10;99.90;;;;;;4972964;28;20042;-81
2022/12/20 01:08:48;;;;;;;16.98;8.38;;;1.00;99.90;;;;;;5006187;28;20061;-80
2022/12/20 01:11:19;;;;;;;17.83;8.20;;;0.90;99.90;;;;;;4992379;28;20062;-79
2022/12/20 01:13:51;;;;;;;15.38;8.07;;;0.90;99.90;;;;;;4974557;28;20077;-81
2022/12/20 01:16:22;;;;;;;16.77;7.63;;;0.80;99.90;;;;;;4990187;28;20053;-80
2022/12/20 01:18:50;;;;;;;20.98;9.10;;;0.70;99.90;;;;;;4988670;28;20391;-80
2022/12/20 01:21:20;;;;;;;18.90;9.23;;;0.70;99.90;;;;;;4991257;28;20069;-80
2022/12/20 01:23:48;;;;;;;18.38;8.77;;;0.60;99.90;;;;;;4991507;28;20466;-79
2022/12/20 01:26:18;;;;;;;18.35;8.55;;;0.50;99.90;;;;;;4972612;28;20370;-81
2022/12/20 01:28:52;;;;;;;19.58;8.80;;;0.50;99.90;;;;;;4985858;28;20054;-78
2022/12/20 01:31:20;;;;;;;17.77;7.97;;;0.50;99.90;;;;;;4991466;28;20442;-79
2022/12/20 01:33:49;;;;;;;18.58;8.82;;;0.40;99.90;;;;;;4990755;28;20076;-78
2022/12/20 01:36:20;;;;;;;20.05;8.65;;;0.40;99.90;;;;;;4972223;28;20050;-78
2022/12/20 01:38:48;;;;;;;22.67;9.10;;;0.30;99.90;;;;;;4989655;28;20577;-79
2022/12/20 01:41:18;;;;;;;23.23;9.38;;;0.30;99.90;;;;;;4991807;28;20137;-80
2022/12/20 01:43:51;;;;;;;18.30;9.00;;;0.30;99.90;;;;;;4989201;28;20054;-78
2022/12/20 01:46:20;;;;;;;;;;;0.20;99.90;;;;;;4991426;28;20501;-78
2022/12/20 01:48:52;;;;;;;18.45;8.93;;;0.20;99.90;;;;;;4988704;28;20278;-78
2022/12/20 01:51:21;;;;;;;17.02;8.38;;;0.20;99.90;;;;;;4990643;28;20117;-78
2022/12/20 01:54:00;;;;;;;17.60;8.80;;;0.10;99.90;;;;;;4990557;28;20057;-78
2022/12/20 01:56:28;;;;;;;22.92;10.00;;;0.10;99.90;;;;;;4991695;28;20054;-78
2022/12/20 01:58:59;;;;;;;18.92;8.63;;;0.10;99.90;;;;;;4972989;28;20057;-78
2022/12/20 02:01:26;;;;;;;20.33;9.75;;;0.10;99.90;;;;;;4989550;28;20158;-78
2022/12/20 02:03:56;;;;;;;23.58;10.55;;;0.10;99.90;;;;;;4989900;28;20096;-78
2022/12/20 02:06:26;;;;;;;18.13;8.25;;;0.20;99.90;;;;;;4973917;28;20050;-78
2022/12/20 02:08:58;;;;;;;20.52;8.95;;;0.10;99.90;;;;;;4971947;28;20070;-78
2022/12/20 02:11:47;;;;;;;20.85;10.20;;;0.10;99.90;;;;;;5004162;28;20078;-78
2022/12/20 02:14:32;;;;;;;23.45;10.70;;;0.00;99.90;;;;;;4990119;28;20077;-79
2022/12/20 02:17:13;;;;;;;20.25;9.35;;;-0.10;99.90;;;;;;5005695;28;20050;-79
2022/12/20 02:20:20;;;;;;;24.67;9.93;;;-0.10;99.90;;;;;;4989272;28;20057;-79
2022/12/20 02:23:14;;;;;;;22.30;10.50;;;-0.10;99.90;;;;;;4977252;28;20511;-78
2022/12/20 02:25:57;;;;;;;22.35;9.57;;;-0.20;99.90;;;;;;4989786;28;20185;-79
2022/12/20 02:28:41;;;;;;;;;;;-0.20;99.90;;;;;;5005368;28;20055;-78
2022/12/20 02:31:16;;;;;;;22.92;9.50;;;-0.10;99.90;;;;;;4989799;28;20061;-79
2022/12/20 02:33:47;;;;;;;25.05;10.85;;;-0.10;99.90;;;;;;5016392;28;20057;-78
2022/12/20 02:36:16;;;;;;;21.98;10.00;;;-0.20;99.90;;;;;;5005663;28;20081;-78
2022/12/20 02:38:45;;;;;;;19.02;8.82;;;-0.20;99.90;;;;;;4969358;28;20466;-79
2022/12/20 02:41:19;;;;;;;23.95;10.95;;;-0.30;99.90;;;;;;4990233;28;20062;-79
2022/12/20 02:46:40;;;;;;;21.67;9.93;;;-0.30;99.90;;;;;;4976235;28;20046;-79
2022/12/20 02:49:13;;;;;;;24.58;10.52;;;-0.30;99.90;;;;;;4992487;28;20417;-80
2022/12/20 02:51:43;;;;;;;23.98;10.10;;;-0.30;99.90;;;;;;4992613;28;20081;-80
2022/12/20 02:54:11;;;;;;;19.58;9.20;;;-0.30;99.90;;;;;;4989550;28;20057;-80
2022/12/20 02:56:45;;;;;;;17.80;9.43;;;-0.30;99.90;;;;;;4991533;28;20054;-80
2022/12/20 02:59:18;;;;;;;23.00;10.23;;;-0.30;99.90;;;;;;4994408;28;20065;-80
2022/12/20 03:01:51;;;;;;;22.75;10.52;;;-0.40;99.90;;;;;;4993188;28;20053;-80
2022/12/20 03:04:23;;;;;;;21.60;10.50;;;-0.40;99.90;;;;;;4992554;28;20054;-81
2022/12/20 03:07:03;;;;;;;24.60;11.43;;;-0.50;99.90;;;;;;4976660;28;20709;-82
2022/12/20 03:09:34;;;;;;;29.48;11.32;;;-0.50;99.90;;;;;;5010042;28;20061;-82
2022/12/20 03:12:03;;;;;;;23.25;10.30;;;-0.50;99.90;;;;;;4993359;28;20050;-82
2022/12/20 03:14:34;;;;;;;28.70;10.88;;;-0.50;99.90;;;;;;4992957;28;20050;-82
2022/12/20 03:17:05;;;;;;;29.40;12.18;;;-0.50;99.90;;;;;;4992391;28;20046;-80
2022/12/20 03:19:32;;;;;;;23.75;9.43;;;-0.50;99.90;;;;;;4993446;28;20052;-81
2022/12/20 03:22:00;;;;;;;23.83;10.70;;;-0.40;99.90;;;;;;4992823;28;20460;-83
2022/12/20 03:24:28;;;;;;;74.55;33.10;;;-0.30;99.90;;;;;;4976238;28;20054;-83
2022/12/20 03:26:56;;;;;;;28.60;12.52;;;-0.30;99.90;;;;;;4991619;28;20061;-82
2022/12/20 03:29:25;;;;;;;26.67;12.15;;;-0.30;99.90;;;;;;4975575;28;20097;-82
2022/12/20 03:31:53;;;;;;;26.35;11.25;;;-0.30;99.90;;;;;;5007576;28;20050;-81
2022/12/20 03:34:22;;;;;;;25.63;11.57;;;-0.40;99.90;;;;;;5008698;28;20422;-82
2022/12/20 03:36:50;;;;;;;29.02;11.75;;;-0.40;99.90;;;;;;5007644;28;20137;-81
2022/12/20 03:39:17;;;;;;;28.73;13.05;;;-0.50;99.90;;;;;;5006695;28;20042;-82
2022/12/20 03:41:45;;;;;;;32.20;13.30;;;-0.60;99.90;;;;;;5005998;28;20065;-80
2022/12/20 03:44:17;;;;;;;30.95;12.95;;;-0.60;99.90;;;;;;4975937;28;20054;-81
2022/12/20 03:46:45;;;;;;;26.45;11.35;;;-0.60;99.90;;;;;;4993463;28;20141;-80
2022/12/20 03:49:17;;;;;;;30.60;13.38;;;-0.60;99.90;;;;;;4978128;28;20093;-80
2022/12/20 03:51:50;;;;;;;33.00;13.73;;;-0.50;99.90;;;;;;4992101;28;20105;-79
2022/12/20 03:54:19;;;;;;;30.45;12.95;;;-0.50;99.90;;;;;;4990924;28;20133;-80
2022/12/20 03:57:09;;;;;;;30.08;13.45;;;-0.50;99.90;;;;;;4993316;28;20074;-80
2022/12/20 03:59:37;;;;;;;33.42;13.65;;;-0.60;99.90;;;;;;4991997;28;20055;-81
2022/12/20 04:02:07;;;;;;;25.58;12.40;;;-0.60;99.90;;;;;;4992017;28;20066;-82
2022/12/20 04:04:34;;;;;;;33.95;13.00;;;-0.60;99.90;;;;;;4975367;28;20156;-83
2022/12/20 04:07:04;;;;;;;27.80;12.45;;;-0.80;99.90;;;;;;4986862;28;20193;-77
2022/12/20 04:09:33;;;;;;;25.55;11.23;;;-0.80;99.90;;;;;;5000840;28;20077;-77
2022/12/20 04:12:09;;;;;;;30.33;11.77;;;-0.90;99.90;;;;;;4997144;28;20050;-82
2022/12/20 04:14:39;;;;;;;25.20;11.90;;;-1.00;99.90;;;;;;4988320;28;20050;-81
2022/12/20 04:17:07;;;;;;;26.55;11.88;;;-1.10;99.90;;;;;;4989746;28;20113;-77
2022/12/20 04:19:36;;;;;;;27.80;12.45;;;-1.20;99.90;;;;;;4989809;28;20490;-81
2022/12/20 04:22:09;;;;;;;29.70;12.48;;;-1.20;99.90;;;;;;4998218;28;20066;-78
2022/12/20 04:25:02;;;;;;;28.55;12.25;;;-1.30;99.90;;;;;;4972693;28;20077;-77
2022/12/20 04:27:33;;;;;;;23.50;11.73;;;-1.40;99.90;;;;;;4991374;28;20540;-77
2022/12/20 04:30:04;;;;;;;26.88;11.35;;;-1.50;99.90;;;;;;4990884;28;20078;-78
2022/12/20 04:32:34;;;;;;;26.88;12.95;;;-1.50;99.90;;;;;;4988541;28;20514;-74
2022/12/20 04:35:04;;;;;;;27.10;11.82;;;-1.60;99.90;;;;;;4973826;28;20153;-75
2022/12/20 04:37:39;;;;;;;31.05;12.63;;;-1.60;99.90;;;;;;4989871;28;20154;-75
2022/12/20 04:40:10;;;;;;;30.10;13.07;;;-1.70;99.90;;;;;;4974404;28;20104;-75
2022/12/20 04:42:57;;;;;;;30.77;12.38;;;-1.70;99.90;;;;;;4984096;28;20051;-75
2022/12/20 04:45:25;;;;;;;29.02;12.35;;;-1.70;99.90;;;;;;4989484;28;20050;-75
2022/12/20 04:47:54;;;;;;;28.92;11.90;;;-1.70;99.90;;;;;;4992338;28;20061;-75
2022/12/20 04:50:32;;;;;;;30.83;13.30;;;-1.80;99.90;;;;;;4988492;28;20066;-78
2022/12/20 04:55:49;;;;;;;31.50;13.38;;;-1.80;99.90;;;;;;4989811;28;20059;-78
2022/12/20 04:58:17;;;;;;;27.40;12.80;;;-1.90;99.90;;;;;;4990969;28;20521;-79
2022/12/20 05:00:45;;;;;;;29.60;12.95;;;-1.90;99.90;;;;;;4985027;28;20058;-79
2022/12/20 05:03:25;;;;;;;28.25;11.95;;;-1.90;99.90;;;;;;4991387;28;20046;-77
2022/12/20 05:05:53;;;;;;;30.88;12.80;;;-2.10;99.90;;;;;;4990284;28;20140;-75
2022/12/20 05:08:24;;;;;;;30.90;12.02;;;-2.20;99.90;;;;;;4982090;28;20049;-76
2022/12/20 05:10:53;;;;;;;36.35;13.43;;;-2.30;99.90;;;;;;4993363;28;20050;-74
2022/12/20 05:13:22;;;;;;;27.15;11.52;;;-2.40;99.90;;;;;;4989714;28;20065;-74
2022/12/20 05:15:52;;;;;;;28.42;12.35;;;-2.50;99.90;;;;;;4989931;28;20046;-71
2022/12/20 05:18:25;;;;;;;30.15;12.20;;;-2.50;99.90;;;;;;5005034;28;20058;-72
2022/12/20 05:26:48;;;;;;;28.92;13.75;;;-2.60;99.90;;;;;;4933768;28;20047;-73
2022/12/20 05:29:18;;;;;;;29.35;12.73;;;-2.70;99.90;;;;;;4974142;28;20046;-74
2022/12/20 05:31:46;;;;;;;31.77;13.60;;;-2.80;99.90;;;;;;4985843;28;20174;-76
2022/12/20 05:34:14;;;;;;;28.65;12.48;;;-2.80;99.90;;;;;;4985804;28;20052;-74
2022/12/20 05:36:47;;;;;;;35.08;12.82;;;-2.90;99.90;;;;;;5003141;28;20127;-74
2022/12/20 05:39:16;;;;;;;34.70;13.25;;;-3.00;99.90;;;;;;4987106;28;20068;-74
2022/12/20 05:41:46;;;;;;;31.73;12.57;;;-3.00;99.90;;;;;;4971689;28;20046;-74
2022/12/20 05:44:14;;;;;;;30.35;12.75;;;-3.10;99.90;;;;;;5006456;28;20050;-73
2022/12/20 05:46:45;;;;;;;34.70;14.57;;;-3.10;99.90;;;;;;4987811;28;20514;-74
2022/12/20 05:49:18;;;;;;;32.03;12.77;;;-3.20;99.90;;;;;;4987303;28;20113;-73
2022/12/20 05:51:46;;;;;;;29.90;12.95;;;-3.20;99.90;;;;;;4996414;28;20514;-73
2022/12/20 05:54:26;;;;;;;29.25;11.80;;;-3.20;99.90;;;;;;4999727;28;20050;-74
2022/12/20 05:57:04;;;;;;;28.52;11.98;;;-3.20;99.90;;;;;;4999777;28;20046;-74
2022/12/20 05:59:40;;;;;;;28.63;12.25;;;-3.30;99.90;;;;;;4986314;28;20050;-74
2022/12/20 06:02:15;;;;;;;35.50;12.07;;;-3.40;99.90;;;;;;4983410;28;20446;-73
2022/12/20 06:04:44;;;;;;;32.30;13.20;;;-3.40;99.90;;;;;;4977853;28;20051;-75
2022/12/20 06:07:18;;;;;;;38.03;13.80;;;-3.60;99.90;;;;;;4987730;28;20050;-74
2022/12/20 06:09:56;;;;;;;32.90;11.10;;;-3.60;99.90;;;;;;4996948;28;20050;-74
2022/12/20 06:12:31;;;;;;;33.80;12.30;;;-3.70;99.90;;;;;;4977968;28;20061;-72
2022/12/20 06:15:02;;;;;;;29.00;10.48;;;-3.80;99.90;;;;;;4986367;28;20062;-73
2022/12/20 06:17:31;;;;;;;34.42;13.02;;;-3.90;99.90;;;;;;4985351;28;20054;-73
2022/12/20 06:19:59;;;;;;;37.83;13.20;;;-4.00;99.90;;;;;;4999680;28;20058;-74
2022/12/20 06:22:27;;;;;;;40.35;14.68;;;-4.00;99.90;;;;;;4984246;28;20200;-72
2022/12/20 06:24:58;;;;;;;31.30;12.73;;;-4.10;99.90;;;;;;5006459;28;20058;-74
2022/12/20 06:27:31;;;;;;;34.65;11.98;;;-4.00;99.90;;;;;;5009434;28;20061;-71
2022/12/20 06:30:12;;;;;;;30.88;12.18;;;-4.10;99.90;;;;;;4998333;28;20054;-71
2022/12/20 06:32:53;;;;;;;32.60;13.80;;;-4.20;99.90;;;;;;5009891;28;20142;-71
2022/12/20 06:35:21;;;;;;;34.17;13.15;;;-4.20;99.90;;;;;;5002109;28;20074;-72
2022/12/20 06:37:50;;;;;;;30.60;12.60;;;-4.30;99.90;;;;;;5005583;28;20049;-72
2022/12/20 06:40:19;;;;;;;36.17;13.45;;;-4.40;99.90;;;;;;5004380;28;20085;-72
2022/12/20 06:42:47;;;;;;;29.50;11.68;;;-4.40;99.90;;;;;;4991555;28;20105;-71
2022/12/20 06:45:16;;;;;;;33.22;12.18;;;-4.50;99.90;;;;;;4990433;28;20533;-72
2022/12/20 06:47:45;;;;;;;34.35;11.43;;;-4.50;99.90;;;;;;5005459;28;20047;-72
2022/12/20 06:50:12;;;;;;;32.25;12.18;;;-4.50;99.90;;;;;;4987680;28;20043;-74
2022/12/20 06:52:41;;;;;;;34.78;13.38;;;-4.60;99.90;;;;;;5002149;28;20541;-75
2022/12/20 06:55:09;;;;;;;35.38;12.55;;;-4.60;99.90;;;;;;4991398;28;20054;-75
2022/12/20 06:57:41;;;;;;;34.20;14.27;;;-4.60;99.90;;;;;;5006278;28;20054;-75
2022/12/20 07:00:12;;;;;;;32.17;11.75;;;-4.60;99.90;;;;;;5007586;28;20058;-76
2022/12/20 07:02:40;;;;;;;37.05;13.93;;;-4.70;99.90;;;;;;4992771;28;20058;-75
2022/12/20 07:05:08;;;;;;;32.35;12.35;;;-4.70;99.90;;;;;;4992083;28;20066;-72
2022/12/20 07:07:36;;;;;;;29.33;10.75;;;-4.70;99.90;;;;;;4990152;28;20058;-72
2022/12/20 07:10:04;;;;;;;29.25;12.48;;;-4.70;99.90;;;;;;4985741;28;20078;-72
2022/12/20 07:12:32;;;;;;;33.60;12.15;;;-4.70;99.90;;;;;;4974232;28;20055;-72
2022/12/20 07:15:01;;;;;;;28.80;12.00;;;-4.80;99.90;;;;;;4974413;28;20137;-73
2022/12/20 07:17:28;;;;;;;33.83;12.52;;;-4.80;99.90;;;;;;4975968;28;20046;-71
2022/12/20 07:19:55;;;;;;;39.90;13.30;;;-4.90;99.90;;;;;;4991327;28;20137;-74
2022/12/20 07:22:23;;;;;;;36.10;12.48;;;-4.90;99.90;;;;;;4984742;28;20061;-74
2022/12/20 07:24:51;;;;;;;33.38;12.23;;;-5.00;99.90;;;;;;4991080;28;20077;-74
2022/12/20 07:27:19;;;;;;;27.60;10.77;;;-4.90;99.90;;;;;;5003338;28;20053;-71
2022/12/20 07:29:47;;;;;;;29.45;12.10;;;-4.90;99.90;;;;;;4987034;28;20096;-73
2022/12/20 07:32:16;;;;;;;28.25;11.18;;;-4.90;99.90;;;;;;4987613;28;20050;-74
2022/12/20 07:34:43;;;;;;;26.60;11.40;;;-4.90;99.90;;;;;;4966332;28;20042;-71
2022/12/20 07:37:11;;;;;;;31.27;12.18;;;-4.90;99.90;;;;;;4985350;28;20579;-72
2022/12/20 07:39:38;;;;;;;36.15;14.80;;;-5.00;99.90;;;;;;4989462;28;20112;-72
2022/12/20 07:42:06;;;;;;;27.15;12.07;;;-5.00;99.90;;;;;;4990668;28;20053;-73
2022/12/20 07:44:42;;;;;;;32.95;12.60;;;-4.90;99.90;;;;;;4970658;28;20089;-72
2022/12/20 07:47:10;;;;;;;28.42;11.48;;;-4.90;99.90;;;;;;4990200;28;20065;-72
2022/12/20 07:49:39;;;;;;;36.90;11.88;;;-4.90;99.90;;;;;;4989854;28;20056;-73
2022/12/20 07:52:09;;;;;;;26.30;10.77;;;-4.80;99.90;;;;;;4989666;28;20141;-73
2022/12/20 07:54:44;;;;;;;38.90;13.57;;;-4.80;99.90;;;;;;4989531;28;20483;-73
2022/12/20 07:57:17;;;;;;;33.80;12.63;;;-4.70;99.90;;;;;;4991207;28;20521;-73
2022/12/20 07:59:49;;;;;;;32.90;11.90;;;-4.70;99.90;;;;;;4975656;28;20110;-71
2022/12/20 08:02:21;;;;;;;31.98;13.02;;;-4.70;99.90;;;;;;4989511;28;20495;-72
2022/12/20 08:04:50;;;;;;;39.17;12.20;;;-4.70;99.90;;;;;;4973288;28;20050;-73
2022/12/20 08:07:20;;;;;;;32.53;12.65;;;-4.70;99.90;;;;;;4987750;28;20047;-74
2022/12/20 08:09:48;;;;;;;31.77;12.57;;;-4.70;99.90;;;;;;4973143;28;20050;-73
2022/12/20 08:12:18;;;;;;;32.97;13.05;;;-4.70;99.90;;;;;;4978806;28;20383;-73
2022/12/20 08:14:45;;;;;;;36.10;13.50;;;-4.70;99.90;;;;;;4992362;28;20113;-72
2022/12/20 08:17:13;;;;;;;34.15;13.30;;;-4.80;99.90;;;;;;4998424;28;20093;-73
2022/12/20 08:19:40;;;;;;;35.88;13.93;;;-4.80;99.90;;;;;;4992231;28;20062;-74
2022/12/20 08:22:09;;;;;;;39.38;12.65;;;-4.80;99.90;;;;;;4995818;28;20054;-72
2022/12/20 08:24:37;;;;;;;35.85;13.15;;;-4.80;99.90;;;;;;4989504;28;20082;-73
2022/12/20 08:27:04;;;;;;;33.88;13.43;;;-4.70;99.90;;;;;;4992909;28;20055;-73
2022/12/20 08:29:32;;;;;;;36.70;13.82;;;-4.70;99.90;;;;;;4984134;28;20050;-73
2022/12/20 08:31:59;;;;;;;31.05;12.75;;;-4.70;99.90;;;;;;4992211;28;20057;-75
2022/12/20 08:34:28;;;;;;;32.63;12.55;;;-4.70;99.90;;;;;;4991987;28;20061;-73
2022/12/20 08:36:56;;;;;;;29.90;11.68;;;-4.70;99.90;;;;;;4995734;28;20077;-72
2022/12/20 08:39:25;;;;;;;38.95;12.80;;;-4.70;99.90;;;;;;4990713;28;20140;-72
2022/12/20 08:41:53;;;;;;;27.85;10.80;;;-4.70;99.90;;;;;;4988958;28;20057;-74
2022/12/20 08:44:23;;;;;;;27.88;11.68;;;-4.70;99.90;;;;;;4990400;28;20150;-75
2022/12/20 08:46:52;;;;;;;31.45;10.95;;;-4.70;99.90;;;;;;4991551;28;20062;-74
2022/12/20 08:49:32;;;;;;;33.58;11.43;;;-4.70;99.90;;;;;;4988726;28;20054;-74
2022/12/20 08:52:00;;;;;;;33.08;12.93;;;-4.80;99.90;;;;;;4973956;28;20054;-74
2022/12/20 08:54:29;;;;;;;32.85;12.82;;;-4.80;99.90;;;;;;4986777;28;20094;-74
2022/12/20 08:56:56;;;;;;;35.30;12.57;;;-4.80;99.90;;;;;;4972026;28;20057;-74
2022/12/20 08:59:25;;;;;;;30.13;11.18;;;-4.80;99.90;;;;;;4985665;28;20046;-74
2022/12/20 09:01:53;;;;;;;31.45;12.25;;;-4.70;99.90;;;;;;4984809;28;20399;-75
2022/12/20 09:04:21;;;;;;;33.38;12.30;;;-4.70;99.90;;;;;;4987795;28;20051;-74
2022/12/20 09:06:48;;;;;;;33.70;12.35;;;-4.60;99.90;;;;;;4989283;28;20054;-73
2022/12/20 09:09:16;;;;;;;28.98;11.63;;;-4.50;99.90;;;;;;4991614;28;20519;-75
2022/12/20 09:11:45;;;;;;;35.65;12.90;;;-4.50;99.90;;;;;;4991235;28;20051;-74
2022/12/20 09:14:13;;;;;;;30.85;12.40;;;-4.50;99.90;;;;;;4989909;28;20096;-74
2022/12/20 09:16:40;;;;;;;32.67;13.02;;;-4.70;99.90;;;;;;4989516;28;20469;-74
2022/12/20 09:19:10;;;;;;;33.90;12.93;;;-4.70;99.90;;;;;;4989830;28;20072;-74
2022/12/20 09:21:38;;;;;;;37.97;12.73;;;-4.70;99.90;;;;;;4986337;28;20051;-75
2022/12/20 09:24:06;;;;;;;27.85;11.15;;;-4.70;99.90;;;;;;4996202;28;20539;-73
2022/12/20 09:26:35;;;;;;;30.52;12.90;;;-4.70;99.90;;;;;;4971784;28;20524;-73
2022/12/20 09:29:05;;;;;;;40.45;13.25;;;-4.70;99.90;;;;;;4977571;28;20042;-74
2022/12/20 09:31:33;;;;;;;40.47;13.45;;;-4.60;99.90;;;;;;4991685;28;20054;-79
2022/12/20 09:34:00;;;;;;;35.55;13.15;;;-4.60;99.90;;;;;;4989322;28;20531;-78
2022/12/20 09:36:30;;;;;;;26.55;10.30;;;-4.60;99.90;;;;;;4990185;28;20050;-79
2022/12/20 09:38:58;;;;;;;30.65;12.07;;;-4.60;99.90;;;;;;4993949;28;20510;-76
2022/12/20 09:41:33;;;;;;;37.95;13.20;;;-4.50;99.90;;;;;;4989422;28;20054;-76
2022/12/20 09:44:07;;;;;;;31.35;12.73;;;-4.50;99.90;;;;;;4976824;28;20516;-77
2022/12/20 09:46:35;;;;;;;33.30;13.18;;;-4.60;99.90;;;;;;4976896;28;20054;-78
2022/12/20 09:49:03;;;;;;;35.15;13.52;;;-4.60;99.90;;;;;;4975410;28;20110;-78
2022/12/20 09:52:15;;;;;;;29.85;13.50;;;-4.60;99.90;;;;;;4975835;28;20089;-77
2022/12/20 09:54:55;;;;;;;32.00;11.35;;;-4.60;99.90;;;;;;5006470;28;20148;-77
2022/12/20 09:57:33;;;;;;;29.17;12.80;;;-4.60;99.90;;;;;;4994165;28;20057;-74
2022/12/20 10:00:03;;;;;;;28.23;11.95;;;-4.50;99.90;;;;;;4976600;28;20349;-76
2022/12/20 10:02:32;;;;;;;32.33;13.38;;;-4.60;99.90;;;;;;4993154;28;20481;-75
2022/12/20 10:04:59;;;;;;;36.10;14.50;;;-4.80;99.90;;;;;;4992853;28;20042;-76
2022/12/20 10:07:39;;;;;;;30.00;12.20;;;-4.80;99.90;;;;;;5000702;28;20059;-75
2022/12/20 10:10:56;;;;;;;28.38;12.77;;;-4.80;99.90;;;;;;4990792;28;20551;-75
2022/12/20 10:13:47;;;;;;;28.00;13.18;;;-4.70;99.90;;;;;;4975297;28;20138;-74
2022/12/20 10:16:34;;;;;;;33.50;11.48;;;-4.60;99.90;;;;;;4983387;28;20054;-76
2022/12/20 10:19:22;;;;;;;34.38;12.27;;;-4.60;99.90;;;;;;4984050;28;20047;-76
2022/12/20 10:21:57;;;;;;;29.73;12.10;;;-4.60;99.90;;;;;;4992233;28;20050;-75
2022/12/20 10:24:31;;;;;;;28.63;11.13;;;-4.60;99.90;;;;;;4993529;28;20097;-77
2022/12/20 10:27:07;;;;;;;31.73;12.52;;;-4.50;99.90;;;;;;4992891;28;20065;-77
2022/12/20 10:29:35;;;;;;;35.28;13.35;;;-4.50;99.90;;;;;;4993002;28;20108;-77
2022/12/20 10:32:14;;;;;;;33.67;12.88;;;-4.50;99.90;;;;;;4994256;28;20158;-77
2022/12/20 10:34:51;;;;;;;35.38;14.15;;;-4.50;99.90;;;;;;4994343;28;20058;-78
2022/12/20 10:37:19;;;;;;;32.92;11.63;;;-4.50;99.90;;;;;;4989577;28;20105;-77
2022/12/20 10:39:50;;;;;;;33.90;12.82;;;-4.50;99.90;;;;;;4986636;28;20155;-77
2022/12/20 10:42:39;;;;;;;30.08;12.40;;;-4.50;99.90;;;;;;4982164;28;20069;-77
2022/12/20 10:45:33;;;;;;;32.70;10.88;;;-4.40;99.90;;;;;;4991663;28;20061;-77
2022/12/20 10:48:06;;;;;;;32.35;14.43;;;-4.40;99.90;;;;;;4983722;28;20531;-76
2022/12/20 10:50:34;;;;;;;31.15;13.07;;;-4.30;99.90;;;;;;4990044;28;20485;-77
2022/12/20 10:53:23;;;;;;;36.15;13.18;;;-4.30;99.90;;;;;;4992621;28;20391;-78
2022/12/20 10:55:51;;;;;;;34.13;14.45;;;-4.20;99.90;;;;;;4993783;28;20533;-77
2022/12/20 10:58:34;;;;;;;34.00;15.00;;;-4.20;99.90;;;;;;4986091;28;20093;-77
2022/12/20 11:01:13;;;;;;;33.60;13.93;;;-4.30;99.90;;;;;;4975651;28;20530;-76
2022/12/20 11:03:58;;;;;;;33.95;13.82;;;-4.40;99.90;;;;;;4982226;28;20043;-76
2022/12/20 11:06:41;;;;;;;27.65;11.60;;;-4.40;99.90;;;;;;4986092;28;20535;-77
2022/12/20 11:09:26;;;;;;;27.25;12.15;;;-4.40;99.90;;;;;;4989180;28;20142;-77
2022/12/20 11:12:04;;;;;;;31.20;11.70;;;-4.50;99.90;;;;;;4999811;28;20113;-77
2022/12/20 11:14:34;;;;;;;30.30;11.80;;;-4.60;99.90;;;;;;4985186;28;20058;-76
2022/12/20 11:17:15;;;;;;;27.35;11.38;;;-4.70;99.90;;;;;;4974246;28;20051;-76
2022/12/20 11:20:22;;;;;;;32.10;11.55;;;-4.80;99.90;;;;;;4976270;28;20046;-76
2022/12/20 11:23:00;;;;;;;29.60;11.80;;;-4.80;99.90;;;;;;4967483;28;20511;-78
2022/12/20 11:25:48;;;;;;;28.38;12.07;;;-4.80;99.90;;;;;;4987560;28;20085;-81
2022/12/20 11:28:37;;;;;;;24.95;10.27;;;-4.80;99.90;;;;;;4993434;28;20054;-80
2022/12/20 11:31:16;;;;;;;28.70;12.25;;;-4.70;99.90;;;;;;4981183;28;20113;-81
2022/12/20 11:34:03;;;;;;;26.25;12.88;;;-4.80;99.90;;;;;;4992024;28;20054;-77
2022/12/20 11:36:53;;;;;;;24.38;10.30;;;-4.80;99.90;;;;;;4993005;28;20112;-79
2022/12/20 11:39:32;;;;;;;29.13;11.10;;;-4.80;99.90;;;;;;4985441;28;20060;-77
2022/12/20 11:42:11;;;;;;;28.92;10.80;;;-4.80;99.90;;;;;;4989006;28;20143;-78
2022/12/20 11:44:54;;;;;;;29.13;10.52;;;-4.90;99.90;;;;;;4988456;28;20058;-78
2022/12/20 11:47:45;;;;;;;;;;;-5.00;99.90;;;;;;4973800;28;20134;-77
2022/12/20 11:50:42;;;;;;;31.63;12.20;;;-5.00;99.90;;;;;;4976049;28;19936;-77
2022/12/20 11:53:21;;;;;;;27.90;11.40;;;-5.10;99.90;;;;;;4981805;28;20423;-79
2022/12/20 11:55:53;;;;;;;32.30;13.13;;;-5.10;99.90;;;;;;4992658;28;20529;-78
2022/12/20 11:58:27;;;;;;;31.80;12.15;;;-5.10;99.90;;;;;;4989732;28;20046;-79
2022/12/20 12:01:00;;;;;;;29.05;12.05;;;-5.10;99.90;;;;;;4980029;28;20046;-80
2022/12/20 12:03:33;;;;;;;32.88;12.27;;;-5.20;99.90;;;;;;4973315;28;20051;-81
2022/12/20 12:06:03;;;;;;;;;;;-5.20;99.90;;;;;;4972415;28;20093;-80
2022/12/20 12:08:41;;;;;;;34.85;12.45;;;-5.20;99.90;;;;;;4988901;28;20327;-82
2022/12/20 12:11:17;;;;;;;33.13;12.07;;;-5.20;99.90;;;;;;5005880;28;20406;-80
2022/12/20 12:13:45;;;;;;;33.53;12.52;;;-5.20;99.90;;;;;;4990562;28;20054;-81
2022/12/20 12:16:21;;;;;;;32.00;11.82;;;-5.30;99.90;;;;;;4989126;28;20050;-79
2022/12/20 12:18:49;;;;;;;35.65;13.52;;;-5.20;99.90;;;;;;4991349;28;20149;-81
2022/12/20 12:21:23;;;;;;;30.80;12.20;;;-5.20;99.90;;;;;;4990809;28;20073;-81
2022/12/20 12:24:02;;;;;;;33.38;12.45;;;-5.20;99.90;;;;;;4989616;28;20049;-80
2022/12/20 12:26:33;;;;;;;33.22;13.23;;;-5.20;99.90;;;;;;4979956;28;20061;-81
2022/12/20 12:29:04;;;;;;;30.77;11.82;;;-5.20;99.90;;;;;;4970224;28;20426;-79
2022/12/20 12:31:39;;;;;;;45.20;18.20;;;-5.20;99.90;;;;;;4980733;28;20510;-80
2022/12/20 12:34:21;;;;;;;36.17;12.93;;;-5.30;99.90;;;;;;4983535;28;20510;-78
2022/12/20 12:37:36;;;;;;;34.88;13.75;;;-5.30;99.90;;;;;;5192296;27;20375;-77
2022/12/20 12:40:34;;;;;;;29.55;12.48;;;-5.30;99.90;;;;;;5170573;27;20054;-79
2022/12/20 12:43:53;;;;;;;32.92;11.60;;;-5.30;99.90;;;;;;5154246;27;20145;-80
2022/12/20 12:46:27;;;;;;;30.75;12.60;;;-5.30;99.90;;;;;;5161934;27;20084;-81
2022/12/20 12:49:00;;;;;;;30.52;11.00;;;-5.40;99.90;;;;;;5155437;27;20047;-81
2022/12/20 12:51:33;;;;;;;29.40;11.15;;;-5.50;99.90;;;;;;5157803;27;20471;-80
2022/12/20 12:54:19;;;;;;;30.75;11.70;;;-5.50;99.90;;;;;;5150712;27;20043;-81
2022/12/20 12:56:49;;;;;;;29.35;10.10;;;-5.50;99.90;;;;;;5152047;27;20051;-84
2022/12/20 12:59:49;;;;;;;43.53;14.27;;;-5.50;99.90;;;;;;5140972;27;20047;-86
2022/12/20 13:02:51;;;;;;;37.80;12.20;;;-5.50;99.90;;;;;;5150872;27;20526;-83
2022/12/20 13:05:35;;;;;;;25.90;10.48;;;-5.60;99.90;;;;;;5158374;27;20053;-81
2022/12/20 13:08:15;;;;;;;29.75;11.00;;;-5.60;99.90;;;;;;5156276;27;20046;-82
2022/12/20 13:11:02;;;;;;;36.05;12.30;;;-5.70;99.90;;;;;;5159097;27;20047;-78
2022/12/20 13:13:30;;;;;;;34.30;11.95;;;-5.80;99.90;;;;;;5158682;27;20574;-79